createdAt,value
2022-08-30T00:00:00.392Z,80.30
2022-08-30T00:03:06.938Z,80.40
2022-08-30T00:05:56.577Z,80.40
2022-08-30T00:08:46.616Z,80.40
2022-08-30T00:11:35.039Z,80.40
2022-08-30T00:14:23.189Z,80.40
2022-08-30T00:17:12.062Z,80.40
2022-08-30T00:20:02.009Z,80.40
2022-08-30T00:22:50.487Z,80.40
2022-08-30T00:25:38.956Z,80.40
2022-08-30T00:28:27.371Z,80.20
2022-08-30T00:31:15.792Z,79.70
2022-08-30T00:34:05.184Z,79.40
2022-08-30T00:36:54.740Z,79.30
2022-08-30T00:39:44.097Z,79.00
2022-08-30T00:42:32.713Z,78.90
2022-08-30T00:45:24.378Z,78.30
2022-08-30T00:48:12.476Z,78.90
2022-08-30T00:51:04.789Z,78.70
2022-08-30T00:53:56.379Z,79.00
2022-08-30T00:56:44.875Z,78.70
2022-08-30T00:59:34.249Z,78.70
2022-08-30T01:02:24.646Z,78.80
2022-08-30T01:05:15.965Z,78.80
2022-08-30T01:08:05.079Z,78.70
2022-08-30T01:10:55.275Z,78.40
2022-08-30T01:13:44.159Z,78.50
2022-08-30T01:16:33.765Z,78.50
2022-08-30T01:19:34.399Z,78.70
2022-08-30T01:22:29.498Z,78.70
2022-08-30T01:25:23.378Z,78.80
2022-08-30T01:28:15.806Z,78.60
2022-08-30T01:31:04.974Z,78.80
2022-08-30T01:33:53.355Z,78.90
2022-08-30T01:36:45.281Z,78.80
2022-08-30T01:39:34.911Z,78.50
2022-08-30T01:42:25.370Z,78.30
2022-08-30T01:45:16.379Z,78.40
2022-08-30T01:48:06.537Z,78.60
2022-08-30T01:50:55.368Z,78.80
2022-08-30T01:53:45.817Z,79.00
2022-08-30T01:56:33.984Z,79.10
2022-08-30T01:59:24.087Z,79.00
2022-08-30T02:02:12.919Z,79.20
2022-08-30T02:05:01.528Z,79.30
2022-08-30T02:07:50.133Z,79.40
2022-08-30T02:10:38.780Z,79.40
2022-08-30T02:13:27.278Z,79.60
2022-08-30T02:16:19.990Z,79.70
2022-08-30T02:19:08.850Z,79.50
2022-08-30T02:21:58.534Z,79.70
2022-08-30T02:24:47.060Z,79.70
2022-08-30T02:27:35.550Z,79.60
2022-08-30T02:30:24.400Z,79.80
2022-08-30T02:33:14.632Z,79.80
2022-08-30T02:36:03.516Z,79.70
2022-08-30T02:38:53.248Z,79.80
2022-08-30T02:41:42.236Z,79.60
2022-08-30T02:44:30.775Z,79.70
2022-08-30T02:47:19.479Z,79.80
2022-08-30T02:50:11.116Z,79.80
2022-08-30T02:52:59.781Z,79.80
2022-08-30T02:55:49.563Z,79.80
2022-08-30T02:58:38.479Z,79.80
2022-08-30T03:01:29.363Z,79.90
2022-08-30T03:04:18.157Z,79.80
2022-08-30T03:07:13.819Z,79.80
2022-08-30T03:10:02.190Z,79.80
2022-08-30T03:12:50.730Z,79.90
2022-08-30T03:15:40.255Z,79.90
2022-08-30T03:18:29.180Z,79.90
2022-08-30T03:21:18.473Z,79.80
2022-08-30T03:24:09.073Z,80.00
2022-08-30T03:26:57.676Z,80.00
2022-08-30T03:29:46.325Z,79.90
2022-08-30T03:32:34.613Z,80.00
2022-08-30T03:35:23.191Z,80.00
2022-08-30T03:38:11.620Z,80.10
2022-08-30T03:41:02.086Z,80.00
2022-08-30T03:43:50.046Z,80.00
2022-08-30T03:46:39.662Z,80.10
2022-08-30T03:49:28.528Z,80.00
2022-08-30T03:52:16.834Z,80.00
2022-08-30T03:55:08.513Z,80.10
2022-08-30T03:57:58.863Z,80.00
2022-08-30T04:00:47.552Z,80.10
2022-08-30T04:03:37.352Z,80.00
2022-08-30T04:06:25.747Z,80.10
2022-08-30T04:09:15.401Z,80.10
2022-08-30T04:12:04.043Z,80.20
2022-08-30T04:14:54.409Z,80.10
2022-08-30T04:17:42.805Z,80.10
2022-08-30T04:20:33.048Z,80.10
2022-08-30T04:23:21.592Z,80.10
2022-08-30T04:26:11.147Z,80.20
2022-08-30T04:29:00.022Z,80.20
2022-08-30T04:31:49.700Z,80.20
2022-08-30T04:34:38.592Z,80.50
2022-08-30T04:37:27.568Z,80.50
2022-08-30T04:40:16.700Z,80.50
2022-08-30T04:43:05.816Z,80.80
2022-08-30T04:45:55.486Z,80.40
2022-08-30T04:48:46.573Z,80.70
2022-08-30T04:51:35.552Z,81.20
2022-08-30T04:54:23.977Z,80.90
2022-08-30T04:57:12.983Z,80.90
2022-08-30T05:00:01.299Z,80.80
2022-08-30T05:02:50.551Z,81.20
2022-08-30T05:05:41.918Z,81.30
2022-08-30T05:08:30.350Z,81.30
2022-08-30T05:11:19.312Z,81.20
2022-08-30T05:14:08.243Z,81.30
2022-08-30T05:16:56.485Z,81.30
2022-08-30T05:19:45.356Z,81.60
2022-08-30T05:22:37.219Z,81.90
2022-08-30T05:25:28.753Z,81.10
2022-08-30T05:28:17.512Z,81.10
2022-08-30T05:31:14.923Z,81.30
2022-08-30T05:34:03.644Z,82.30
2022-08-30T05:36:52.102Z,82.20
2022-08-30T05:39:45.068Z,81.80
2022-08-30T05:42:42.039Z,81.60
2022-08-30T05:45:30.151Z,81.60
2022-08-30T05:48:18.836Z,81.80
2022-08-30T05:51:09.449Z,81.70
2022-08-30T05:53:59.974Z,81.60
2022-08-30T05:56:49.476Z,81.50
2022-08-30T05:59:38.825Z,81.50
2022-08-30T06:02:27.322Z,81.40
2022-08-30T06:05:15.982Z,81.30
2022-08-30T06:08:05.021Z,81.40
2022-08-30T06:10:54.028Z,81.60
2022-08-30T06:13:43.965Z,81.60
2022-08-30T06:16:32.891Z,82.30
2022-08-30T06:19:21.580Z,83.50
2022-08-30T06:22:10.440Z,85.10
2022-08-30T06:24:58.826Z,85.50
2022-08-30T06:27:47.413Z,86.30
2022-08-30T06:30:37.796Z,87.30
2022-08-30T06:33:27.048Z,86.90
2022-08-30T06:36:19.284Z,88.00
2022-08-30T06:39:08.691Z,87.30
2022-08-30T06:41:57.085Z,88.40
2022-08-30T06:44:48.521Z,89.10
2022-08-30T06:47:38.345Z,88.30
2022-08-30T06:50:26.617Z,89.10
2022-08-30T06:53:15.109Z,89.10
2022-08-30T06:56:07.367Z,88.10
2022-08-30T06:58:55.924Z,88.30
2022-08-30T07:01:44.925Z,88.60
2022-08-30T07:04:35.292Z,88.70
2022-08-30T07:07:24.317Z,88.40
2022-08-30T07:10:14.040Z,88.40
2022-08-30T07:13:02.443Z,87.70
2022-08-30T07:15:51.605Z,87.90
2022-08-30T07:18:55.158Z,88.40
2022-08-30T07:21:45.722Z,88.50
2022-08-30T07:24:33.979Z,89.80
2022-08-30T07:27:22.868Z,89.70
2022-08-30T07:30:12.271Z,88.60
2022-08-30T07:33:01.107Z,88.80
2022-08-30T07:35:50.714Z,88.90
2022-08-30T07:38:40.682Z,90.20
2022-08-30T07:41:30.746Z,90.70
2022-08-30T07:44:19.334Z,90.00
2022-08-30T07:47:11.506Z,89.80
2022-08-30T07:50:01.431Z,89.10
2022-08-30T07:52:50.094Z,85.00
2022-08-30T07:55:40.064Z,82.50
2022-08-30T07:58:29.982Z,83.10
2022-08-30T08:01:19.208Z,81.90
2022-08-30T08:04:07.906Z,82.30
2022-08-30T08:06:56.787Z,82.00
2022-08-30T08:09:45.462Z,82.90
2022-08-30T08:12:36.358Z,83.00
2022-08-30T08:15:25.831Z,81.90
2022-08-30T08:18:14.592Z,81.40
2022-08-30T08:21:03.248Z,80.90
2022-08-30T08:23:51.951Z,80.80
2022-08-30T08:26:45.478Z,81.20
2022-08-30T08:29:35.868Z,81.60
2022-08-30T08:32:24.241Z,81.90
2022-08-30T08:35:13.691Z,81.90
2022-08-30T08:38:02.120Z,81.10
2022-08-30T08:41:04.844Z,83.20
2022-08-30T08:43:53.722Z,82.90
2022-08-30T08:46:55.276Z,81.90
2022-08-30T08:49:46.368Z,81.00
2022-08-30T08:53:01.919Z,80.80
2022-08-30T08:55:52.406Z,81.00
2022-08-30T08:58:45.139Z,80.60
2022-08-30T09:01:34.307Z,82.40
2022-08-30T09:04:31.462Z,83.20
2022-08-30T09:07:24.169Z,82.70
2022-08-30T09:10:12.901Z,82.60
2022-08-30T09:13:02.176Z,82.50
2022-08-30T09:15:55.071Z,82.60
2022-08-30T09:18:49.063Z,82.80
2022-08-30T09:21:41.049Z,82.90
2022-08-30T09:24:39.158Z,83.00
2022-08-30T09:27:30.519Z,82.70
2022-08-30T09:30:20.750Z,82.90
2022-08-30T09:33:20.550Z,82.70
2022-08-30T09:36:20.434Z,82.20
2022-08-30T09:39:18.386Z,81.60
2022-08-30T09:42:15.717Z,81.20
2022-08-30T09:45:13.854Z,81.00
2022-08-30T09:48:02.339Z,81.10
2022-08-30T09:51:00.146Z,81.20
2022-08-30T09:57:13.305Z,81.50
2022-08-30T10:00:06.616Z,81.50
2022-08-30T10:03:30.086Z,81.20
2022-08-30T10:06:30.322Z,81.40
2022-08-30T10:09:28.587Z,81.30
2022-08-30T10:12:26.845Z,81.30
2022-08-30T10:15:22.801Z,81.20
2022-08-30T10:18:19.979Z,81.10
2022-08-30T10:21:17.033Z,81.20
2022-08-30T10:24:11.241Z,81.50
2022-08-30T10:27:06.800Z,82.20
2022-08-30T10:30:02.761Z,83.80
2022-08-30T10:32:56.662Z,84.80
2022-08-30T10:35:49.002Z,83.60
2022-08-30T10:38:40.940Z,83.60
2022-08-30T10:41:36.968Z,82.50
2022-08-30T10:44:29.064Z,82.00
2022-08-30T10:47:27.185Z,81.50
2022-08-30T10:50:21.789Z,81.50
2022-08-30T10:53:15.663Z,80.70
2022-08-30T10:56:07.752Z,82.20
2022-08-30T10:58:58.663Z,81.80
2022-08-30T11:01:57.957Z,82.50
2022-08-30T11:05:11.304Z,82.50
2022-08-30T11:08:22.164Z,83.00
2022-08-30T11:11:22.717Z,82.70
2022-08-30T11:14:15.328Z,82.40
2022-08-30T11:17:03.868Z,82.10
2022-08-30T11:19:56.630Z,82.90
2022-08-30T11:23:22.896Z,83.20
2022-08-30T11:26:33.692Z,82.20
2022-08-30T11:29:38.993Z,82.30
2022-08-30T11:33:03.038Z,81.20
2022-08-30T11:35:59.026Z,81.20
2022-08-30T11:39:05.599Z,81.30
2022-08-30T11:42:14.113Z,81.60
2022-08-30T11:45:39.370Z,82.80
2022-08-30T11:48:54.243Z,83.00
2022-08-30T11:52:28.116Z,82.30
2022-08-30T11:55:39.410Z,80.70
2022-08-30T11:58:37.299Z,82.00
2022-08-30T12:01:50.590Z,81.30
2022-08-30T12:04:47.247Z,80.30
2022-08-30T12:08:01.597Z,80.10
2022-08-30T12:10:53.405Z,80.40
2022-08-30T12:13:56.156Z,79.20
2022-08-30T12:17:02.523Z,79.40
2022-08-30T12:19:51.624Z,79.10
2022-08-30T12:22:40.657Z,78.60
2022-08-30T12:25:35.095Z,79.60
2022-08-30T12:28:26.100Z,78.80
2022-08-30T12:31:18.344Z,79.40
2022-08-30T12:34:07.503Z,78.30
2022-08-30T12:37:00.545Z,77.50
2022-08-30T12:39:53.543Z,75.80
2022-08-30T12:42:51.342Z,75.70
2022-08-30T12:45:50.750Z,76.30
2022-08-30T12:48:42.077Z,77.10
2022-08-30T12:51:37.882Z,76.80
2022-08-30T12:54:31.083Z,75.20
2022-08-30T12:57:38.726Z,75.70
2022-08-30T13:00:31.512Z,75.40
2022-08-30T13:03:30.956Z,74.30
2022-08-30T13:06:44.113Z,74.20
2022-08-30T13:09:35.199Z,74.10
2022-08-30T13:12:26.448Z,73.00
2022-08-30T13:15:18.969Z,73.10
2022-08-30T13:18:27.575Z,73.10
2022-08-30T13:21:25.445Z,73.70
2022-08-30T13:24:15.364Z,72.40
2022-08-30T13:27:09.789Z,70.30
2022-08-30T13:30:00.076Z,72.10
2022-08-30T13:32:49.113Z,72.00
2022-08-30T13:35:38.646Z,71.90
2022-08-30T13:38:27.302Z,72.00
2022-08-30T13:41:15.843Z,72.30
2022-08-30T13:44:13.507Z,73.30
2022-08-30T13:50:11.714Z,73.70
2022-08-30T13:53:01.360Z,73.90
2022-08-30T13:55:49.804Z,74.30
2022-08-30T13:58:39.091Z,74.30
2022-08-30T14:01:30.518Z,74.60
2022-08-30T14:04:38.441Z,75.00
2022-08-30T14:07:27.404Z,75.10
2022-08-30T14:10:45.609Z,75.20
2022-08-30T14:13:29.479Z,75.20
2022-08-30T14:16:33.590Z,75.30
2022-08-30T14:19:22.519Z,76.00
2022-08-30T14:22:11.557Z,76.00
2022-08-30T14:25:01.519Z,76.50
2022-08-30T14:27:51.518Z,76.70
2022-08-30T14:30:42.098Z,76.90
2022-08-30T14:33:31.020Z,76.50
2022-08-30T14:36:20.055Z,76.60
2022-08-30T14:39:12.619Z,76.40
2022-08-30T14:42:03.388Z,76.60
2022-08-30T14:44:56.487Z,76.40
2022-08-30T14:47:45.253Z,76.70
2022-08-30T14:50:33.783Z,76.40
2022-08-30T14:53:22.019Z,76.70
2022-08-30T14:56:11.981Z,76.40
2022-08-30T14:59:03.061Z,76.30
2022-08-30T15:01:53.638Z,76.20
2022-08-30T15:04:42.006Z,75.90
2022-08-30T15:07:30.308Z,75.70
2022-08-30T15:10:20.787Z,75.80
2022-08-30T15:13:09.097Z,75.80
2022-08-30T15:15:57.391Z,75.20
2022-08-30T15:18:47.501Z,75.40
2022-08-30T15:21:38.235Z,74.40
2022-08-30T15:24:29.864Z,77.30
2022-08-30T15:27:18.077Z,76.70
2022-08-30T15:30:08.712Z,76.20
2022-08-30T15:32:59.499Z,75.60
2022-08-30T15:35:52.261Z,75.20
2022-08-30T15:38:42.370Z,75.20
2022-08-30T15:41:31.227Z,75.20
2022-08-30T15:44:20.334Z,75.40
2022-08-30T15:47:09.113Z,75.50
2022-08-30T15:49:59.480Z,76.10
2022-08-30T15:52:48.861Z,76.40
2022-08-30T15:55:37.250Z,76.20
2022-08-30T15:58:25.802Z,76.30
2022-08-30T16:01:15.915Z,76.20
2022-08-30T16:04:06.881Z,76.10
2022-08-30T16:06:55.244Z,76.30
2022-08-30T16:09:45.347Z,76.50
2022-08-30T16:12:34.082Z,76.70
2022-08-30T16:15:22.598Z,76.70
2022-08-30T16:18:13.450Z,77.00
2022-08-30T16:21:07.380Z,76.70
2022-08-30T16:23:58.325Z,76.90
2022-08-30T16:26:48.682Z,77.10
2022-08-30T16:29:37.996Z,77.10
2022-08-30T16:32:26.510Z,77.30
2022-08-30T16:35:15.184Z,75.40
2022-08-30T16:38:03.908Z,77.10
2022-08-30T16:40:53.209Z,78.10
2022-08-30T16:43:44.446Z,77.50
2022-08-30T16:46:34.923Z,78.30
2022-08-30T16:49:24.906Z,77.70
2022-08-30T16:52:13.997Z,78.90
2022-08-30T16:55:02.410Z,78.30
2022-08-30T16:57:52.068Z,77.90
2022-08-30T17:03:52.461Z,81.00
2022-08-30T17:06:40.941Z,79.10
2022-08-30T17:09:29.443Z,78.10
2022-08-30T17:12:17.946Z,77.40
2022-08-30T17:15:07.718Z,77.30
2022-08-30T17:17:58.351Z,77.10
2022-08-30T17:20:47.534Z,77.20
2022-08-30T17:23:36.938Z,76.70
2022-08-30T17:26:25.716Z,76.90
2022-08-30T17:29:15.805Z,76.80
2022-08-30T17:32:04.838Z,76.60
2022-08-30T17:34:55.171Z,76.80
2022-08-30T17:37:43.708Z,76.90
2022-08-30T17:40:33.386Z,76.80
2022-08-30T17:43:22.129Z,76.50
2022-08-30T17:46:13.265Z,77.70
2022-08-30T17:49:01.958Z,78.00
2022-08-30T17:51:56.445Z,77.80
2022-08-30T17:54:45.794Z,77.80
2022-08-30T17:57:34.493Z,77.60
2022-08-30T18:00:24.687Z,78.00
2022-08-30T18:03:12.999Z,78.50
2022-08-30T18:06:04.048Z,78.50
2022-08-30T18:08:53.689Z,80.10
2022-08-30T18:11:42.619Z,81.30
2022-08-30T18:14:31.218Z,80.40
2022-08-30T18:17:19.695Z,80.70
2022-08-30T18:20:09.048Z,81.10
2022-08-30T18:22:59.521Z,80.80
2022-08-30T18:25:56.829Z,80.30
2022-08-30T18:28:45.983Z,79.60
2022-08-30T18:31:34.372Z,80.00
2022-08-30T18:34:22.853Z,79.80
2022-08-30T18:37:12.752Z,79.80
2022-08-30T18:40:01.831Z,79.80
2022-08-30T18:42:52.195Z,80.00
2022-08-30T18:45:44.922Z,80.10
2022-08-30T18:48:34.468Z,79.80
2022-08-30T18:51:24.778Z,79.70
2022-08-30T18:54:13.598Z,80.00
2022-08-30T18:57:01.788Z,79.80
2022-08-30T18:59:52.108Z,79.90
2022-08-30T19:02:40.330Z,80.20
2022-08-30T19:05:32.490Z,80.50
2022-08-30T19:08:21.996Z,80.20
2022-08-30T19:11:10.931Z,80.10
2022-08-30T19:13:59.479Z,80.30
2022-08-30T19:16:49.681Z,80.20
2022-08-30T19:19:48.564Z,80.10
2022-08-30T19:25:51.625Z,80.50
2022-08-30T19:28:42.375Z,80.10
2022-08-30T19:31:30.861Z,80.20
2022-08-30T19:34:22.181Z,80.10
2022-08-30T19:37:14.663Z,80.20
2022-08-30T19:40:09.267Z,80.50
2022-08-30T19:42:58.436Z,80.70
2022-08-30T19:45:46.968Z,80.50
2022-08-30T19:48:42.291Z,80.40
2022-08-30T19:51:32.314Z,80.40
2022-08-30T19:54:22.444Z,80.40
2022-08-30T19:57:11.163Z,80.20
2022-08-30T20:00:03.301Z,80.10
2022-08-30T20:03:00.240Z,79.90
2022-08-30T20:05:50.407Z,79.90
2022-08-30T20:08:40.042Z,80.60
2022-08-30T20:11:29.592Z,79.90
2022-08-30T20:14:18.491Z,80.30
2022-08-30T20:17:06.939Z,80.30
2022-08-30T20:20:01.638Z,80.30
2022-08-30T20:22:50.663Z,80.40
2022-08-30T20:24:23.477Z,80.60
2022-08-30T20:24:33.336Z,80.30
2022-08-30T20:25:44.476Z,80.20
2022-08-30T20:28:33.147Z,80.20
2022-08-30T20:31:22.098Z,80.20
2022-08-30T20:34:11.578Z,80.10
2022-08-30T20:37:00.181Z,80.10
2022-08-30T20:39:48.431Z,80.10
2022-08-30T20:42:41.738Z,80.10
2022-08-30T20:45:30.768Z,80.10
2022-08-30T20:48:20.711Z,80.20
2022-08-30T20:51:10.183Z,80.20
2022-08-30T20:53:58.973Z,80.00
2022-08-30T20:56:48.095Z,79.60
2022-08-30T20:59:38.374Z,79.50
2022-08-30T21:02:28.203Z,79.40
2022-08-30T21:05:17.832Z,79.70
2022-08-30T21:08:09.995Z,80.00
2022-08-30T21:10:58.732Z,80.10
2022-08-30T21:13:48.458Z,80.10
2022-08-30T21:16:38.766Z,80.20
2022-08-30T21:19:27.434Z,80.20
2022-08-30T21:22:15.676Z,80.00
2022-08-30T21:25:04.168Z,79.60
2022-08-30T21:27:54.041Z,79.30
2022-08-30T21:30:42.525Z,79.20
2022-08-30T21:33:32.372Z,79.10
2022-08-30T21:36:39.803Z,79.00
2022-08-30T21:39:29.864Z,78.80
2022-08-30T21:42:18.357Z,79.10
2022-08-30T21:45:07.719Z,79.10
2022-08-30T21:47:55.974Z,78.90
2022-08-30T21:50:46.606Z,78.60
2022-08-30T21:53:35.149Z,78.60
2022-08-30T21:56:24.785Z,79.10
2022-08-30T21:59:14.010Z,79.20
2022-08-30T22:02:03.623Z,79.00
2022-08-30T22:04:51.979Z,79.00
2022-08-30T22:07:42.362Z,79.20
2022-08-30T22:10:33.159Z,80.10
2022-08-30T22:13:22.136Z,79.60
2022-08-30T22:16:11.425Z,79.20
2022-08-30T22:18:59.722Z,79.30
2022-08-30T22:21:48.530Z,78.90
2022-08-30T22:24:39.787Z,78.60
2022-08-30T22:27:28.328Z,78.80
2022-08-30T22:30:17.958Z,78.90
2022-08-30T22:33:07.102Z,79.10
2022-08-30T22:35:55.886Z,79.20
2022-08-30T22:38:44.822Z,79.10
2022-08-30T22:41:35.281Z,79.30
2022-08-30T22:44:23.576Z,79.40
2022-08-30T22:47:11.870Z,79.60
2022-08-30T22:50:00.638Z,79.60
2022-08-30T22:52:49.644Z,79.70
2022-08-30T22:55:41.444Z,79.80
2022-08-30T22:58:31.517Z,79.80
2022-08-30T23:01:22.632Z,79.80
2022-08-30T23:04:11.570Z,79.80
2022-08-30T23:06:59.951Z,79.80
2022-08-30T23:09:48.205Z,79.80
2022-08-30T23:12:38.000Z,79.80
2022-08-30T23:15:29.104Z,79.80
2022-08-30T23:18:17.236Z,79.80
2022-08-30T23:21:07.107Z,79.80
2022-08-30T23:24:17.284Z,79.60
2022-08-30T23:27:23.389Z,79.70
2022-08-30T23:30:30.613Z,79.80
2022-08-30T23:33:37.514Z,79.80
2022-08-30T23:36:43.571Z,79.70
2022-08-30T23:39:49.710Z,79.80
2022-08-30T23:42:55.990Z,79.90
2022-08-30T23:46:01.887Z,80.00
2022-08-30T23:49:09.668Z,80.10
2022-08-30T23:52:15.139Z,80.10
2022-08-30T23:55:21.539Z,80.10
2022-08-30T23:58:27.764Z,80.20
